Time;durP1;ratioP1;P1;durP2;ratioP2;P2;SDS_P1;SDS_P2;PMS_P1;PMS_P2;Temp;Humidity;BMP_temperature;BMP_pressure;BME280_temperature;BME280_humidity;BME280_pressure;Samples;Min_cycle;Max_cycle;Signal;HPM_P1;HPM_P2
2023/06/16 00:01:40;;;;;;;0.47;0.28;;;18.80;99.90;;;;;;5004057;28;20065;-66
2023/06/16 00:04:06;;;;;;;0.30;0.30;;;18.80;99.90;;;;;;5005475;28;20477;-66
2023/06/16 00:06:31;;;;;;;0.13;0.13;;;18.80;99.90;;;;;;5007307;28;20054;-66
2023/06/16 00:08:58;;;;;;;3.03;1.75;;;18.80;99.90;;;;;;5007365;28;20081;-66
2023/06/16 00:11:27;;;;;;;0.00;0.00;;;18.70;99.90;;;;;;5004644;28;20057;-66
2023/06/16 00:13:54;;;;;;;0.28;0.28;;;18.80;99.90;;;;;;5010178;28;20437;-66
2023/06/16 00:16:20;;;;;;;0.00;0.00;;;18.70;99.90;;;;;;5010127;28;20060;-66
2023/06/16 00:18:51;;;;;;;0.10;0.10;;;18.70;99.90;;;;;;5007015;28;20046;-66
2023/06/16 00:21:35;;;;;;;0.65;0.47;;;18.60;99.90;;;;;;5011915;28;20104;-66
2023/06/16 00:24:01;;;;;;;0.30;0.30;;;18.60;99.90;;;;;;5000713;28;20121;-66
2023/06/16 00:26:27;;;;;;;0.32;0.20;;;18.50;99.90;;;;;;5009863;28;20458;-66
2023/06/16 00:28:52;;;;;;;0.82;0.82;;;18.50;99.90;;;;;;4998513;28;20050;-66
2023/06/16 00:31:18;;;;;;;0.00;0.00;;;18.50;99.90;;;;;;5005112;28;20117;-66
2023/06/16 00:33:43;;;;;;;0.30;0.30;;;18.50;99.90;;;;;;5010707;28;20482;-66
2023/06/16 00:36:09;;;;;;;0.22;0.22;;;18.40;99.90;;;;;;5012756;28;20042;-66
2023/06/16 00:38:34;;;;;;;0.32;0.32;;;18.30;99.90;;;;;;5010688;28;20108;-66
2023/06/16 00:41:00;;;;;;;0.20;0.20;;;18.30;99.90;;;;;;5010336;28;20077;-66
2023/06/16 00:43:26;;;;;;;0.43;0.40;;;18.20;99.90;;;;;;5011362;28;20096;-66
2023/06/16 00:45:52;;;;;;;0.52;0.52;;;18.20;99.90;;;;;;5010026;28;20406;-66
2023/06/16 00:48:18;;;;;;;0.38;0.38;;;18.10;99.90;;;;;;5014057;28;20069;-66
2023/06/16 00:50:44;;;;;;;0.20;0.20;;;18.10;99.90;;;;;;5007289;28;20077;-66
2023/06/16 00:53:10;;;;;;;0.98;0.88;;;18.10;99.90;;;;;;5006640;28;20042;-66
2023/06/16 00:55:36;;;;;;;0.15;0.15;;;18.00;99.90;;;;;;5013760;28;20049;-66
2023/06/16 00:58:03;;;;;;;0.15;0.15;;;18.00;99.90;;;;;;5004333;28;20038;-66
2023/06/16 01:00:32;;;;;;;0.00;0.00;;;17.90;99.90;;;;;;5005940;28;20063;-66
2023/06/16 01:02:57;;;;;;;18.10;0.70;;;18.00;99.90;;;;;;5004181;28;20108;-66
2023/06/16 01:05:24;;;;;;;0.20;0.20;;;17.90;99.90;;;;;;5012485;28;20038;-66
2023/06/16 01:08:04;;;;;;;0.20;0.20;;;17.90;99.90;;;;;;5010524;28;20116;-66
2023/06/16 01:10:56;;;;;;;0.13;0.13;;;17.90;99.90;;;;;;4997725;28;20042;-66
2023/06/16 01:13:33;;;;;;;0.73;0.25;;;17.90;99.90;;;;;;5009265;28;20060;-66
2023/06/16 01:16:01;;;;;;;0.00;0.00;;;17.90;99.90;;;;;;5012595;28;20058;-66
2023/06/16 01:18:29;;;;;;;0.20;0.20;;;17.90;99.90;;;;;;5012472;28;20502;-66
2023/06/16 01:21:23;;;;;;;0.20;0.20;;;17.80;99.90;;;;;;5013096;28;20040;-66
2023/06/16 01:23:57;;;;;;;0.30;0.22;;;17.80;99.90;;;;;;5011087;28;20126;-66
2023/06/16 01:26:24;;;;;;;0.40;0.40;;;17.70;99.90;;;;;;5007308;28;20100;-66
2023/06/16 01:28:51;;;;;;;1.98;0.98;;;17.60;99.90;;;;;;5010455;28;20064;-66
2023/06/16 01:31:28;;;;;;;0.05;0.05;;;17.60;99.90;;;;;;5151279;27;20771;-65
2023/06/16 01:33:55;;;;;;;0.85;0.68;;;17.50;99.90;;;;;;5162257;27;20046;-65
2023/06/16 01:36:21;;;;;;;0.38;0.38;;;17.40;99.90;;;;;;5161618;27;20034;-65
2023/06/16 01:38:48;;;;;;;3.75;2.50;;;17.40;99.90;;;;;;5143984;27;20546;-65
2023/06/16 01:41:17;;;;;;;0.40;0.40;;;17.20;99.90;;;;;;5162283;27;20044;-65
2023/06/16 01:43:44;;;;;;;0.35;0.35;;;17.30;99.90;;;;;;5167711;27;20043;-66
2023/06/16 01:46:10;;;;;;;3.30;0.95;;;17.30;99.90;;;;;;5156418;27;20080;-65
2023/06/16 01:48:36;;;;;;;0.30;0.30;;;17.30;99.90;;;;;;5159925;27;20046;-66
2023/06/16 01:51:02;;;;;;;0.90;0.77;;;17.20;99.90;;;;;;5158994;27;20039;-66
2023/06/16 01:53:27;;;;;;;0.70;0.22;;;17.20;99.90;;;;;;5155748;27;20560;-65
2023/06/16 01:55:53;;;;;;;0.20;0.20;;;17.10;99.90;;;;;;5157248;27;20046;-65
2023/06/16 01:58:22;;;;;;;0.20;0.20;;;17.10;99.90;;;;;;5160542;27;20072;-65
2023/06/16 02:00:57;;;;;;;0.40;0.40;;;17.00;99.90;;;;;;5160073;27;20409;-65
2023/06/16 02:03:35;;;;;;;0.70;0.45;;;17.10;99.90;;;;;;5168012;27;20359;-65
2023/06/16 02:06:07;;;;;;;0.73;0.73;;;17.00;99.90;;;;;;5161226;27;20126;-65
2023/06/16 02:08:34;;;;;;;1.33;1.23;;;17.10;99.90;;;;;;5158375;27;20127;-65
2023/06/16 02:11:01;;;;;;;0.10;0.10;;;16.90;99.90;;;;;;5164791;27;20035;-65
2023/06/16 02:13:27;;;;;;;0.20;0.20;;;16.80;99.90;;;;;;5160163;27;20401;-65
2023/06/16 02:15:53;;;;;;;0.20;0.20;;;16.80;99.90;;;;;;5161681;27;20670;-66
2023/06/16 02:18:24;;;;;;;1.50;0.47;;;16.80;99.90;;;;;;5160099;27;20041;-65
2023/06/16 02:20:49;;;;;;;0.10;0.10;;;16.80;99.90;;;;;;5159270;27;20050;-65
2023/06/16 02:23:15;;;;;;;1.38;0.40;;;16.70;99.90;;;;;;5160996;27;20501;-65
2023/06/16 02:25:41;;;;;;;0.28;0.28;;;16.70;99.90;;;;;;5158077;27;20031;-65
2023/06/16 02:28:06;;;;;;;0.03;0.03;;;16.70;99.90;;;;;;5137142;27;20045;-65
2023/06/16 02:30:32;;;;;;;0.55;0.55;;;16.60;99.90;;;;;;5138185;27;20502;-65
2023/06/16 02:32:58;;;;;;;0.28;0.28;;;16.60;99.90;;;;;;5140994;27;20039;-65
2023/06/16 02:35:24;;;;;;;0.88;0.55;;;16.50;99.90;;;;;;5131326;27;20070;-65
2023/06/16 02:37:52;;;;;;;0.52;0.52;;;16.50;99.90;;;;;;5124613;27;20115;-66
2023/06/16 02:40:18;;;;;;;0.55;0.43;;;16.50;99.90;;;;;;5140743;27;20074;-65
2023/06/16 02:42:43;;;;;;;0.30;0.30;;;16.40;99.90;;;;;;5124047;27;20074;-66
2023/06/16 02:45:09;;;;;;;0.52;0.43;;;16.40;99.90;;;;;;5107675;27;20569;-65
2023/06/16 02:47:35;;;;;;;0.25;0.25;;;16.40;99.90;;;;;;5113909;27;20043;-65
2023/06/16 02:50:01;;;;;;;0.40;0.40;;;16.30;99.90;;;;;;5109725;27;20108;-65
2023/06/16 02:52:26;;;;;;;0.57;0.43;;;16.30;99.90;;;;;;5113979;27;20464;-65
2023/06/16 02:54:52;;;;;;;0.45;0.45;;;16.40;99.90;;;;;;5111617;27;20035;-65
2023/06/16 02:57:18;;;;;;;0.22;0.22;;;16.30;99.90;;;;;;5123114;27;20119;-65
2023/06/16 02:59:43;;;;;;;0.47;0.47;;;16.30;99.90;;;;;;5107346;27;20044;-65
2023/06/16 03:02:09;;;;;;;0.32;0.32;;;16.30;99.90;;;;;;5115390;27;20083;-65
2023/06/16 03:04:34;;;;;;;1.15;0.38;;;16.30;99.90;;;;;;5119012;27;20047;-65
2023/06/16 03:07:02;;;;;;;0.47;0.35;;;16.20;99.90;;;;;;5125770;27;20086;-65
2023/06/16 03:09:28;;;;;;;0.55;0.55;;;16.30;99.90;;;;;;5119361;27;20387;-65
2023/06/16 03:11:55;;;;;;;0.25;0.25;;;16.20;99.90;;;;;;5113917;27;20032;-65
2023/06/16 03:14:21;;;;;;;1.23;0.77;;;16.20;99.90;;;;;;5126443;27;20517;-66
2023/06/16 03:16:48;;;;;;;0.15;0.15;;;16.30;99.90;;;;;;5126998;27;20047;-65
2023/06/16 03:19:18;;;;;;;0.00;0.00;;;16.30;99.90;;;;;;5113247;27;20399;-66
2023/06/16 03:21:50;;;;;;;0.52;0.47;;;16.30;99.90;;;;;;5117984;27;20448;-65
2023/06/16 03:24:19;;;;;;;2.28;0.55;;;16.30;99.90;;;;;;5124937;27;20103;-65
2023/06/16 03:26:47;;;;;;;0.30;0.30;;;16.30;99.90;;;;;;5119973;27;20071;-65
2023/06/16 03:29:13;;;;;;;0.43;0.43;;;16.30;99.90;;;;;;5117157;27;20093;-65
2023/06/16 03:31:39;;;;;;;0.47;0.47;;;16.40;99.90;;;;;;5145714;27;20044;-65
2023/06/16 03:34:05;;;;;;;0.68;0.68;;;16.40;99.90;;;;;;5146841;27;20030;-65
2023/06/16 03:36:39;;;;;;;0.00;0.00;;;16.40;99.90;;;;;;5140818;27;20044;-65
2023/06/16 03:39:05;;;;;;;1.40;0.95;;;16.40;99.90;;;;;;5143379;27;20043;-66
2023/06/16 03:41:32;;;;;;;4.28;1.80;;;16.50;99.90;;;;;;5125216;27;20079;-65
2023/06/16 03:43:57;;;;;;;2.33;0.95;;;16.40;99.90;;;;;;5144702;27;20039;-65
2023/06/16 03:46:23;;;;;;;0.20;0.20;;;16.40;99.90;;;;;;5145355;27;20129;-65
2023/06/16 03:48:48;;;;;;;0.50;0.50;;;16.40;99.90;;;;;;5149795;27;20042;-65
2023/06/16 03:51:14;;;;;;;1.27;1.17;;;16.40;99.90;;;;;;5140727;27;20034;-65
2023/06/16 03:53:40;;;;;;;0.20;0.20;;;16.50;99.90;;;;;;5142619;27;20038;-65
2023/06/16 03:56:05;;;;;;;1.08;0.77;;;16.50;99.90;;;;;;5143622;27;20191;-65
2023/06/16 03:58:31;;;;;;;1.27;1.02;;;16.50;99.90;;;;;;5146508;27;20046;-65
2023/06/16 04:00:57;;;;;;;1.63;0.65;;;16.60;99.90;;;;;;5144322;27;20088;-65
2023/06/16 04:03:25;;;;;;;1.05;1.02;;;16.50;99.90;;;;;;5142033;27;20031;-65
2023/06/16 04:05:52;;;;;;;1.20;1.10;;;16.50;99.90;;;;;;5144107;27;20058;-65
2023/06/16 04:08:18;;;;;;;0.73;0.73;;;16.50;99.90;;;;;;5145794;27;20062;-66
2023/06/16 04:10:44;;;;;;;0.77;0.65;;;16.50;99.90;;;;;;5145997;27;20074;-65
2023/06/16 04:13:09;;;;;;;0.52;0.40;;;16.50;99.90;;;;;;5141114;27;20038;-65
2023/06/16 04:15:35;;;;;;;1.15;1.05;;;16.50;99.90;;;;;;5141126;27;20062;-65
2023/06/16 04:18:00;;;;;;;7.47;1.13;;;16.50;99.90;;;;;;5142542;27;20034;-66
2023/06/16 04:20:26;;;;;;;0.38;0.38;;;16.50;99.90;;;;;;5145239;27;20149;-65
2023/06/16 04:22:52;;;;;;;0.60;0.60;;;16.60;99.90;;;;;;5150531;27;20486;-65
2023/06/16 04:25:17;;;;;;;0.43;0.43;;;16.70;99.90;;;;;;5147021;27;20034;-66
2023/06/16 04:27:43;;;;;;;0.60;0.60;;;16.70;99.90;;;;;;5148294;27;20084;-66
2023/06/16 04:30:09;;;;;;;0.32;0.32;;;16.70;99.90;;;;;;5147436;27;20094;-65
2023/06/16 04:32:36;;;;;;;0.30;0.30;;;16.80;99.90;;;;;;5144484;27;20082;-65
2023/06/16 04:35:06;;;;;;;1.40;0.95;;;16.80;99.90;;;;;;5142772;27;20137;-65
2023/06/16 04:37:32;;;;;;;0.47;0.43;;;16.90;99.90;;;;;;5143991;27;20043;-65
2023/06/16 04:39:58;;;;;;;0.43;0.43;;;17.00;99.90;;;;;;5126627;27;20401;-65
2023/06/16 04:42:24;;;;;;;0.10;0.10;;;17.00;99.90;;;;;;5144536;27;20045;-65
2023/06/16 04:44:50;;;;;;;0.55;0.55;;;17.10;99.90;;;;;;5141932;27;20450;-65
2023/06/16 04:47:17;;;;;;;0.28;0.22;;;17.10;99.90;;;;;;5145249;27;20258;-65
2023/06/16 04:49:43;;;;;;;1.23;0.88;;;17.20;99.90;;;;;;5143239;27;20521;-65
2023/06/16 04:52:09;;;;;;;0.45;0.45;;;17.20;99.90;;;;;;5141941;27;20059;-65
2023/06/16 04:54:35;;;;;;;0.10;0.10;;;17.20;99.90;;;;;;5140554;27;20043;-65
2023/06/16 04:57:00;;;;;;;4.15;0.95;;;17.30;99.90;;;;;;5146164;27;20167;-65
2023/06/16 04:59:26;;;;;;;0.35;0.22;;;17.30;99.90;;;;;;5141965;27;20152;-65
2023/06/16 05:01:52;;;;;;;0.40;0.40;;;17.30;99.90;;;;;;5141928;27;20043;-65
2023/06/16 05:04:17;;;;;;;0.60;0.60;;;17.40;99.90;;;;;;5148953;27;20125;-66
2023/06/16 05:06:43;;;;;;;18.23;0.73;;;17.40;99.90;;;;;;5126434;27;20042;-65
2023/06/16 05:09:09;;;;;;;0.15;0.15;;;17.50;99.90;;;;;;5140750;27;20434;-65
2023/06/16 05:11:34;;;;;;;0.52;0.32;;;17.50;99.90;;;;;;5136207;27;20374;-65
2023/06/16 05:14:00;;;;;;;0.38;0.32;;;17.60;99.90;;;;;;5141646;27;20038;-65
2023/06/16 05:16:26;;;;;;;4.13;0.82;;;17.60;99.90;;;;;;5138338;27;20047;-65
2023/06/16 05:18:52;;;;;;;0.00;0.00;;;17.60;99.90;;;;;;5146063;27;20082;-66
2023/06/16 05:21:24;;;;;;;0.57;0.47;;;17.70;99.90;;;;;;5143409;27;20079;-65
2023/06/16 05:23:51;;;;;;;0.00;0.00;;;17.70;99.90;;;;;;5143785;27;20043;-65
2023/06/16 05:26:16;;;;;;;0.93;0.88;;;17.80;99.90;;;;;;5143537;27;20066;-65
2023/06/16 05:28:42;;;;;;;0.25;0.25;;;17.80;99.90;;;;;;5144678;27;20035;-65
2023/06/16 05:31:07;;;;;;;0.00;0.00;;;17.90;99.90;;;;;;5143208;27;20051;-65
2023/06/16 05:33:33;;;;;;;0.32;0.20;;;17.90;99.90;;;;;;5143529;27;20168;-65
2023/06/16 05:35:59;;;;;;;0.40;0.40;;;17.90;99.90;;;;;;5142726;27;20473;-66
2023/06/16 05:38:24;;;;;;;0.10;0.10;;;18.00;99.90;;;;;;5152320;27;20401;-66
2023/06/16 05:40:50;;;;;;;0.32;0.20;;;18.00;99.90;;;;;;5124210;27;20481;-65
2023/06/16 05:43:15;;;;;;;0.00;0.00;;;18.10;99.90;;;;;;5138557;27;20443;-65
2023/06/16 05:45:41;;;;;;;0.70;0.47;;;18.20;99.90;;;;;;5143442;27;20042;-66
2023/06/16 05:48:06;;;;;;;0.73;0.30;;;18.20;99.90;;;;;;5144113;27;20114;-66
2023/06/16 05:50:32;;;;;;;0.03;0.03;;;18.20;99.90;;;;;;5141376;27;20486;-65
2023/06/16 05:52:57;;;;;;;3.50;0.20;;;18.30;99.90;;;;;;5143750;27;20398;-65
2023/06/16 05:55:23;;;;;;;0.00;0.00;;;18.30;99.90;;;;;;5147974;27;20144;-65
2023/06/16 05:57:48;;;;;;;0.05;0.05;;;18.30;99.90;;;;;;5147697;27;20087;-65
2023/06/16 06:00:15;;;;;;;4.05;0.57;;;18.30;99.90;;;;;;5139830;27;20038;-66
2023/06/16 06:02:40;;;;;;;0.10;0.10;;;18.40;99.90;;;;;;5145023;27;20100;-66
2023/06/16 06:05:06;;;;;;;0.08;0.08;;;18.40;99.90;;;;;;5146080;27;20469;-65
2023/06/16 06:07:31;;;;;;;0.00;0.00;;;18.50;99.90;;;;;;5140885;27;20027;-65
2023/06/16 06:09:57;;;;;;;0.52;0.52;;;18.50;99.90;;;;;;5122696;27;20050;-65
2023/06/16 06:12:23;;;;;;;0.75;0.75;;;18.60;99.90;;;;;;5147453;27;20524;-66
2023/06/16 06:14:48;;;;;;;0.43;0.30;;;18.60;99.90;;;;;;5140670;27;20035;-66
2023/06/16 06:17:14;;;;;;;1.85;0.35;;;18.60;99.90;;;;;;5144809;27;20035;-66
2023/06/16 06:19:40;;;;;;;0.40;0.40;;;18.70;99.90;;;;;;5145980;27;20077;-66
2023/06/16 06:22:05;;;;;;;0.30;0.22;;;18.70;99.90;;;;;;5147388;27;20444;-66
2023/06/16 06:24:31;;;;;;;0.60;0.60;;;18.80;99.90;;;;;;5153032;27;20095;-66
2023/06/16 06:26:57;;;;;;;0.50;0.50;;;18.90;99.90;;;;;;5144733;27;20771;-66
2023/06/16 06:29:22;;;;;;;0.00;0.00;;;18.90;99.90;;;;;;5143817;27;20424;-65
2023/06/16 06:31:48;;;;;;;0.43;0.43;;;19.00;99.90;;;;;;5133666;27;20038;-66
2023/06/16 06:34:13;;;;;;;0.55;0.55;;;19.10;99.90;;;;;;5144231;27;20080;-66
2023/06/16 06:36:39;;;;;;;0.05;0.05;;;19.10;99.90;;;;;;5147513;27;20510;-66
2023/06/16 06:39:05;;;;;;;0.00;0.00;;;19.10;99.90;;;;;;5148718;27;20042;-66
2023/06/16 06:41:31;;;;;;;0.47;0.47;;;19.30;99.90;;;;;;5143501;27;20043;-66
2023/06/16 06:43:56;;;;;;;0.10;0.10;;;19.30;99.90;;;;;;5153532;27;20122;-66
2023/06/16 06:46:22;;;;;;;0.30;0.30;;;19.40;99.90;;;;;;5147619;27;20102;-66
2023/06/16 06:48:48;;;;;;;0.10;0.10;;;19.50;99.90;;;;;;5145640;27;20047;-66
2023/06/16 06:51:13;;;;;;;0.00;0.00;;;19.50;99.90;;;;;;5142232;27;20115;-66
2023/06/16 06:53:39;;;;;;;1.02;0.40;;;19.50;99.90;;;;;;5129390;27;20043;-66
2023/06/16 06:56:05;;;;;;;0.15;0.15;;;19.50;99.90;;;;;;5142431;27;20081;-66
2023/06/16 06:58:32;;;;;;;0.10;0.10;;;19.50;99.90;;;;;;5147826;27;20066;-66
2023/06/16 07:00:58;;;;;;;0.75;0.45;;;19.60;99.90;;;;;;5144828;27;20073;-66
2023/06/16 07:03:23;;;;;;;0.00;0.00;;;19.70;99.90;;;;;;5143735;27;20035;-66
2023/06/16 07:05:49;;;;;;;0.20;0.20;;;19.70;99.90;;;;;;5144273;27;20047;-66
2023/06/16 07:08:14;;;;;;;0.00;0.00;;;19.80;99.90;;;;;;5153282;27;20126;-66
2023/06/16 07:10:40;;;;;;;0.20;0.20;;;19.90;99.90;;;;;;5146519;27;20360;-66
2023/06/16 07:13:06;;;;;;;0.10;0.10;;;19.90;99.90;;;;;;5143256;27;20844;-66
2023/06/16 07:15:32;;;;;;;0.20;0.20;;;20.00;99.90;;;;;;5148788;27;20046;-66
2023/06/16 07:17:57;;;;;;;0.00;0.00;;;20.00;99.90;;;;;;5154237;27;20082;-66
2023/06/16 07:20:23;;;;;;;1.20;0.95;;;20.10;99.90;;;;;;5144988;27;20126;-66
2023/06/16 07:22:49;;;;;;;0.00;0.00;;;20.10;99.90;;;;;;5146083;27;20040;-66
2023/06/16 07:25:17;;;;;;;0.00;0.00;;;20.10;99.90;;;;;;5145586;27;20038;-66
2023/06/16 07:27:43;;;;;;;0.00;0.00;;;20.30;99.90;;;;;;5142994;27;20114;-66
2023/06/16 07:30:09;;;;;;;0.10;0.10;;;20.30;99.90;;;;;;5126544;27;20595;-66
2023/06/16 07:32:36;;;;;;;0.00;0.00;;;20.40;99.90;;;;;;5145138;27;20084;-66
2023/06/16 07:35:02;;;;;;;0.00;0.00;;;20.40;99.90;;;;;;5146901;27;20034;-66
2023/06/16 07:37:28;;;;;;;0.10;0.10;;;20.50;99.90;;;;;;5143565;27;20092;-66
2023/06/16 07:39:54;;;;;;;0.30;0.10;;;20.50;99.90;;;;;;5145697;27;20039;-66
2023/06/16 07:42:19;;;;;;;0.00;0.00;;;20.60;99.90;;;;;;5143201;27;20043;-66
2023/06/16 07:44:45;;;;;;;0.00;0.00;;;20.50;99.90;;;;;;5145194;27;20610;-66
2023/06/16 07:47:10;;;;;;;3.42;0.40;;;20.60;99.90;;;;;;5146091;27;20142;-66
2023/06/16 07:49:36;;;;;;;0.00;0.00;;;20.60;99.90;;;;;;5146316;27;20057;-66
2023/06/16 07:52:02;;;;;;;0.25;0.25;;;20.60;99.90;;;;;;5142339;27;20045;-66
2023/06/16 07:54:28;;;;;;;0.17;0.17;;;20.70;99.90;;;;;;5146120;27;20496;-66
2023/06/16 07:56:53;;;;;;;0.30;0.30;;;20.80;99.90;;;;;;5127710;27;20418;-66
2023/06/16 07:59:19;;;;;;;0.10;0.10;;;20.80;99.90;;;;;;5145268;27;20095;-66
2023/06/16 08:01:45;;;;;;;0.13;0.13;;;21.00;99.90;;;;;;5144792;27;20046;-66
2023/06/16 08:04:11;;;;;;;0.03;0.03;;;21.00;99.90;;;;;;5146114;27;20039;-66
2023/06/16 08:06:37;;;;;;;0.45;0.35;;;21.10;99.90;;;;;;5145155;27;20573;-66
2023/06/16 08:09:03;;;;;;;1.65;0.63;;;21.10;99.60;;;;;;5150584;27;20039;-66
2023/06/16 08:11:29;;;;;;;0.00;0.00;;;21.10;98.60;;;;;;5142818;27;20817;-66
2023/06/16 08:13:54;;;;;;;0.10;0.10;;;21.10;99.40;;;;;;5149424;27;20501;-66
2023/06/16 08:16:20;;;;;;;0.10;0.10;;;21.20;99.50;;;;;;5143298;27;20050;-66
2023/06/16 08:18:46;;;;;;;0.10;0.10;;;21.20;97.30;;;;;;5142757;27;20071;-66
2023/06/16 08:21:11;;;;;;;0.30;0.20;;;21.20;97.80;;;;;;5142045;27;20113;-66
2023/06/16 08:23:37;;;;;;;0.00;0.00;;;21.30;96.90;;;;;;5145860;27;20449;-66
2023/06/16 08:26:05;;;;;;;3.65;0.22;;;21.30;96.80;;;;;;5142378;27;20038;-66
2023/06/16 08:28:30;;;;;;;0.35;0.10;;;21.30;95.70;;;;;;5144091;27;20050;-66
2023/06/16 08:30:56;;;;;;;0.10;0.10;;;21.40;96.00;;;;;;5145008;27;20516;-66
2023/06/16 08:33:22;;;;;;;0.10;0.10;;;21.50;96.60;;;;;;5138213;27;20047;-66
2023/06/16 08:35:47;;;;;;;0.00;0.00;;;21.40;96.20;;;;;;5141469;27;20091;-66
2023/06/16 08:38:13;;;;;;;0.00;0.00;;;21.50;95.30;;;;;;5142016;27;20095;-66
2023/06/16 08:40:38;;;;;;;0.00;0.00;;;21.50;96.00;;;;;;5123878;27;20050;-66
2023/06/16 08:43:11;;;;;;;0.35;0.35;;;21.50;96.00;;;;;;5144219;27;20049;-66
2023/06/16 08:45:38;;;;;;;0.00;0.00;;;21.70;97.00;;;;;;5142762;27;20387;-66
2023/06/16 08:48:05;;;;;;;0.00;0.00;;;21.70;97.10;;;;;;5143035;27;20042;-66
2023/06/16 08:50:32;;;;;;;0.00;0.00;;;21.70;96.20;;;;;;5137936;27;20128;-66
2023/06/16 08:53:00;;;;;;;0.00;0.00;;;21.70;96.80;;;;;;5144561;27;20053;-66
2023/06/16 08:55:27;;;;;;;0.10;0.10;;;21.80;95.40;;;;;;5142085;27;20080;-66
2023/06/16 08:57:54;;;;;;;0.00;0.00;;;21.90;96.20;;;;;;5124708;27;20054;-66
2023/06/16 09:00:21;;;;;;;0.00;0.00;;;22.00;95.90;;;;;;5139334;27;20034;-66
2023/06/16 09:02:53;;;;;;;0.00;0.00;;;22.10;94.40;;;;;;5144364;27;20055;-66
2023/06/16 09:05:19;;;;;;;0.00;0.00;;;22.10;95.00;;;;;;5141659;27;20461;-66
2023/06/16 09:07:45;;;;;;;0.38;0.20;;;22.10;93.40;;;;;;5140161;27;20063;-66
2023/06/16 09:10:11;;;;;;;0.00;0.00;;;22.10;93.80;;;;;;5146486;27;20042;-66
2023/06/16 09:12:36;;;;;;;0.00;0.00;;;22.20;94.10;;;;;;5125479;27;20035;-66
2023/06/16 09:15:08;;;;;;;0.03;0.03;;;22.20;94.20;;;;;;5140966;27;20049;-66
2023/06/16 09:17:34;;;;;;;0.00;0.00;;;22.20;93.50;;;;;;5141138;27;20113;-66
2023/06/16 09:20:01;;;;;;;0.00;0.00;;;22.30;93.80;;;;;;5141844;27;20106;-66
2023/06/16 09:22:28;;;;;;;0.00;0.00;;;22.30;92.80;;;;;;5144722;27;20046;-66
2023/06/16 09:24:55;;;;;;;0.00;0.00;;;22.30;93.60;;;;;;5139581;27;20486;-66
2023/06/16 09:27:23;;;;;;;0.00;0.00;;;22.30;92.60;;;;;;5143227;27;20047;-66
2023/06/16 09:29:57;;;;;;;0.00;0.00;;;22.30;92.50;;;;;;5141025;27;20059;-66
2023/06/16 09:32:23;;;;;;;0.00;0.00;;;22.30;93.20;;;;;;5143013;27;20134;-66
2023/06/16 09:34:48;;;;;;;0.30;0.10;;;22.40;93.70;;;;;;5126795;28;20150;-66
2023/06/16 09:37:19;;;;;;;0.20;0.20;;;22.40;92.60;;;;;;5140637;27;20066;-66
2023/06/16 09:39:45;;;;;;;0.15;0.15;;;22.50;92.40;;;;;;5124002;27;20396;-66
2023/06/16 09:42:16;;;;;;;0.10;0.00;;;22.50;93.20;;;;;;5124536;27;20043;-66
2023/06/16 09:44:42;;;;;;;0.00;0.00;;;22.70;92.90;;;;;;5124086;27;20055;-66
2023/06/16 09:47:12;;;;;;;0.10;0.10;;;23.00;91.70;;;;;;5144231;27;20029;-66
2023/06/16 09:49:38;;;;;;;0.00;0.00;;;23.40;92.00;;;;;;5142234;27;20043;-66
2023/06/16 09:52:04;;;;;;;0.20;0.10;;;23.80;90.50;;;;;;5144162;27;20039;-66
2023/06/16 09:54:33;;;;;;;0.00;0.00;;;24.00;90.60;;;;;;5146194;27;20137;-66
2023/06/16 09:57:01;;;;;;;0.00;0.00;;;24.30;89.60;;;;;;5145430;27;20604;-66
2023/06/16 09:59:27;;;;;;;0.28;0.28;;;24.50;90.00;;;;;;5150233;27;20578;-67
2023/06/16 10:01:54;;;;;;;0.35;0.30;;;24.60;89.70;;;;;;5148169;27;20038;-66
2023/06/16 10:04:21;;;;;;;0.10;0.10;;;24.80;89.70;;;;;;5145796;27;20054;-66
2023/06/16 10:07:00;;;;;;;0.10;0.10;;;24.90;90.40;;;;;;5148094;27;20049;-66
2023/06/16 10:09:33;;;;;;;0.00;0.00;;;25.00;90.50;;;;;;5145411;27;20090;-67
2023/06/16 10:12:00;;;;;;;0.00;0.00;;;25.00;90.20;;;;;;5152044;27;20066;-66
2023/06/16 10:14:30;;;;;;;0.10;0.10;;;25.00;90.00;;;;;;5147946;27;20038;-67
2023/06/16 10:16:56;;;;;;;0.15;0.10;;;25.10;90.70;;;;;;5144612;27;20046;-67
2023/06/16 10:19:23;;;;;;;0.10;0.08;;;25.20;90.70;;;;;;5145694;27;20247;-67
2023/06/16 10:21:53;;;;;;;0.77;0.57;;;25.30;90.60;;;;;;5150369;27;20458;-67
2023/06/16 10:24:19;;;;;;;0.17;0.10;;;25.30;90.20;;;;;;5127551;27;20054;-67
2023/06/16 10:26:46;;;;;;;0.10;0.10;;;25.40;90.60;;;;;;5147142;27;20086;-67
2023/06/16 10:29:16;;;;;;;0.70;0.10;;;25.40;90.30;;;;;;5145601;27;20043;-67
2023/06/16 10:31:45;;;;;;;0.75;0.25;;;25.50;90.30;;;;;;5144065;27;20043;-66
2023/06/16 10:34:23;;;;;;;0.20;0.20;;;25.60;90.40;;;;;;5150945;27;20035;-67
2023/06/16 10:36:52;;;;;;;0.00;0.00;;;25.70;90.00;;;;;;5144873;27;20039;-67
2023/06/16 10:39:18;;;;;;;0.90;0.28;;;25.60;90.00;;;;;;5139736;27;20055;-67
2023/06/16 10:41:51;;;;;;;0.05;0.05;;;25.50;89.20;;;;;;5147894;27;20050;-67
2023/06/16 10:44:28;;;;;;;0.00;0.00;;;25.60;88.70;;;;;;5144520;27;20050;-67
2023/06/16 10:47:26;;;;;;;0.00;0.00;;;25.70;89.50;;;;;;5127769;27;20073;-67
2023/06/16 10:49:57;;;;;;;0.00;0.00;;;25.70;88.80;;;;;;5124164;27;20051;-67
2023/06/16 10:52:29;;;;;;;0.28;0.28;;;25.60;88.60;;;;;;5148061;27;20035;-67
2023/06/16 10:54:56;;;;;;;0.00;0.00;;;25.50;86.60;;;;;;5147643;27;20053;-67
2023/06/16 10:57:25;;;;;;;0.10;0.10;;;25.50;86.80;;;;;;5124250;27;20047;-67
2023/06/16 11:00:06;;;;;;;0.00;0.00;;;25.50;87.40;;;;;;5126346;27;20039;-67
2023/06/16 11:02:34;;;;;;;0.00;0.00;;;25.70;88.70;;;;;;5145963;27;20054;-67
2023/06/16 11:05:11;;;;;;;1.02;0.20;;;25.80;88.50;;;;;;5145329;27;20096;-67
2023/06/16 11:08:02;;;;;;;0.00;0.00;;;26.00;85.80;;;;;;5148265;27;20048;-67
2023/06/16 11:10:28;;;;;;;0.00;0.00;;;26.00;87.40;;;;;;5143376;27;20046;-67
2023/06/16 11:12:54;;;;;;;0.93;0.32;;;26.20;85.70;;;;;;5144829;27;20223;-67
2023/06/16 11:15:20;;;;;;;0.00;0.00;;;26.30;86.00;;;;;;5145464;27;20038;-67
2023/06/16 11:17:49;;;;;;;0.10;0.10;;;26.20;84.60;;;;;;5144961;27;20071;-67
2023/06/16 11:20:15;;;;;;;0.00;0.00;;;26.40;87.50;;;;;;5147081;27;20138;-67
2023/06/16 11:22:43;;;;;;;0.00;0.00;;;26.60;85.80;;;;;;5142922;27;20039;-67
2023/06/16 11:25:09;;;;;;;0.13;0.13;;;26.80;86.40;;;;;;5142887;27;20039;-67
2023/06/16 11:27:37;;;;;;;0.00;0.00;;;26.90;84.20;;;;;;5151659;27;20485;-67
2023/06/16 11:30:07;;;;;;;0.10;0.10;;;26.90;83.90;;;;;;5146039;27;20084;-67
2023/06/16 11:32:34;;;;;;;0.15;0.08;;;26.90;84.60;;;;;;5144805;27;20099;-67
2023/06/16 11:35:02;;;;;;;0.05;0.05;;;27.20;84.80;;;;;;5126917;27;20124;-67
2023/06/16 11:37:52;;;;;;;0.63;0.15;;;27.10;84.80;;;;;;5147004;27;20039;-67
2023/06/16 11:40:20;;;;;;;0.30;0.30;;;27.20;82.80;;;;;;5144036;27;20107;-67
2023/06/16 11:43:00;;;;;;;0.00;0.00;;;27.20;83.20;;;;;;5146228;27;20588;-67
2023/06/16 11:45:28;;;;;;;0.00;0.00;;;27.30;84.10;;;;;;5123439;27;20173;-67
2023/06/16 11:47:58;;;;;;;0.10;0.10;;;27.30;83.00;;;;;;5150124;27;20046;-67
2023/06/16 11:50:24;;;;;;;0.00;0.00;;;27.50;83.40;;;;;;5143283;27;20091;-67
2023/06/16 11:52:51;;;;;;;0.00;0.00;;;27.50;82.80;;;;;;5143143;27;20035;-67
2023/06/16 11:55:17;;;;;;;0.00;0.00;;;27.40;83.90;;;;;;5144343;27;20053;-67
2023/06/16 11:57:43;;;;;;;0.80;0.25;;;27.50;85.00;;;;;;5150821;27;20078;-67
2023/06/16 12:00:11;;;;;;;0.30;0.30;;;27.80;82.20;;;;;;5143180;27;20070;-67
2023/06/16 12:02:37;;;;;;;0.25;0.25;;;28.00;83.30;;;;;;5143959;27;20421;-68
2023/06/16 12:05:10;;;;;;;0.00;0.00;;;27.90;81.30;;;;;;5145925;27;20046;-68
2023/06/16 12:07:37;;;;;;;0.00;0.00;;;27.90;80.80;;;;;;5149665;27;20054;-67
2023/06/16 12:10:03;;;;;;;4.18;0.30;;;27.90;80.80;;;;;;5143646;27;20044;-68
2023/06/16 12:12:30;;;;;;;0.00;0.00;;;28.00;80.90;;;;;;5146364;27;20035;-68
2023/06/16 12:14:58;;;;;;;0.00;0.00;;;28.20;81.80;;;;;;5145540;27;20043;-68
2023/06/16 12:17:24;;;;;;;0.10;0.10;;;28.20;80.80;;;;;;5139570;27;20038;-68
2023/06/16 12:19:51;;;;;;;0.00;0.00;;;28.30;81.00;;;;;;5143326;27;20043;-68
2023/06/16 12:22:17;;;;;;;0.15;0.15;;;28.40;80.50;;;;;;5149597;27;20520;-67
2023/06/16 12:24:43;;;;;;;0.00;0.00;;;28.50;80.70;;;;;;5145822;27;20038;-68
2023/06/16 12:27:09;;;;;;;0.90;0.47;;;28.50;80.40;;;;;;5145124;27;20113;-68
2023/06/16 12:29:35;;;;;;;0.10;0.10;;;28.80;79.80;;;;;;5142372;27;20549;-68
2023/06/16 12:32:03;;;;;;;0.00;0.00;;;28.80;80.80;;;;;;5143562;27;20130;-68
2023/06/16 12:34:35;;;;;;;0.28;0.28;;;28.80;80.10;;;;;;5143263;27;20050;-68
2023/06/16 12:37:03;;;;;;;0.13;0.13;;;28.90;79.60;;;;;;5145342;27;20062;-68
2023/06/16 12:39:29;;;;;;;0.65;0.17;;;29.00;80.10;;;;;;5144582;27;20047;-67
2023/06/16 12:42:00;;;;;;;0.10;0.10;;;28.70;80.60;;;;;;5142160;27;20091;-68
2023/06/16 12:44:51;;;;;;;0.57;0.57;;;28.70;78.90;;;;;;5139782;27;20080;-67
2023/06/16 12:47:19;;;;;;;0.25;0.10;;;28.70;79.50;;;;;;5141355;27;20051;-68
2023/06/16 12:49:45;;;;;;;0.00;0.00;;;28.60;79.10;;;;;;5143034;27;20505;-68